Time;durP1;ratioP1;P1;durP2;ratioP2;P2;SDS_P1;SDS_P2;PMS_P1;PMS_P2;Temp;Humidity;BMP_temperature;BMP_pressure;BME280_temperature;BME280_humidity;BME280_pressure;Samples;Min_cycle;Max_cycle;Signal;HPM_P1;HPM_P2
2021/06/05 00:01:59;;;;;;;1.65;1.49;;;;;;;15.90;90.03;99673.97;2003021;78;20304;-72
2021/06/05 00:05:04;;;;;;;4.36;1.30;;;;;;;15.94;90.38;99672.16;2001576;81;20202;-72
2021/06/05 00:08:08;;;;;;;4.65;1.30;;;;;;;15.95;90.05;99659.00;2001959;81;20174;-73
2021/06/05 00:11:11;;;;;;;2.26;1.20;;;;;;;15.95;89.93;99653.78;2001719;81;20242;-72
2021/06/05 00:14:14;;;;;;;3.10;0.95;;;;;;;16.02;90.10;99660.63;2001859;81;20534;-72
2021/06/05 00:17:17;;;;;;;4.26;1.45;;;;;;;16.09;89.92;99660.47;2004601;80;20679;-72
2021/06/05 00:20:22;;;;;;;2.84;1.35;;;;;;;16.06;89.34;99660.56;2006878;80;20169;-72
2021/06/05 00:23:25;;;;;;;1.31;1.14;;;;;;;16.02;89.35;99662.38;2007226;80;20271;-72
2021/06/05 00:26:28;;;;;;;4.29;0.96;;;;;;;16.05;89.32;99658.81;2006637;80;20185;-72
2021/06/05 00:29:30;;;;;;;2.54;1.05;;;;;;;16.04;89.37;99649.25;2007342;80;20199;-72
2021/06/05 00:32:33;;;;;;;1.21;1.06;;;;;;;16.04;89.36;99649.25;2001744;78;22042;-72
2021/06/05 00:35:36;;;;;;;3.06;1.02;;;;;;;15.99;89.18;99654.59;2001091;81;20271;-71
2021/06/05 00:38:39;;;;;;;2.20;1.40;;;;;;;15.99;89.32;99662.44;2001849;81;20219;-72
2021/06/05 00:41:43;;;;;;;1.58;1.16;;;;;;;15.99;89.51;99658.06;2001690;81;20608;-72
2021/06/05 00:44:46;;;;;;;2.56;1.33;;;;;;;16.01;89.74;99660.66;2001891;81;20213;-72
2021/06/05 00:47:48;;;;;;;3.90;1.00;;;;;;;16.04;89.89;99665.81;2004919;78;20924;-73
2021/06/05 00:50:53;;;;;;;2.20;1.20;;;;;;;16.06;89.94;99661.41;2006461;80;20165;-72
2021/06/05 00:53:58;;;;;;;4.16;1.54;;;;;;;16.09;90.08;99663.09;2006928;80;20245;-72
2021/06/05 00:57:05;;;;;;;2.80;1.44;;;;;;;16.13;90.07;99659.50;2006928;80;21031;-72
2021/06/05 01:00:34;;;;;;;2.03;1.40;;;;;;;16.19;90.04;99657.63;2005855;80;20262;-72
2021/06/05 01:03:39;;;;;;;1.85;1.29;;;;;;;16.23;90.00;99658.41;1999615;81;20207;-72
2021/06/05 01:06:52;;;;;;;4.25;1.29;;;;;;;16.26;89.73;99660.94;2002327;81;20189;-72
2021/06/05 01:10:00;;;;;;;1.74;1.29;;;;;;;16.17;89.40;99663.81;2001190;81;20674;-72
2021/06/05 01:13:25;;;;;;;3.56;1.26;;;;;;;16.16;89.47;99660.31;2001964;81;20871;-72
2021/06/05 01:16:29;;;;;;;4.93;1.27;;;;;;;16.17;89.64;99653.31;2003217;78;21747;-73
2021/06/05 01:20:00;;;;;;;3.08;1.15;;;;;;;16.17;89.75;99653.31;2006742;80;20227;-72
2021/06/05 01:23:20;;;;;;;2.72;1.50;;;;;;;16.15;89.66;99647.22;2007318;80;20825;-72
2021/06/05 01:26:29;;;;;;;4.80;1.11;;;;;;;16.09;89.61;99643.00;2006808;80;20250;-72
2021/06/05 01:29:34;;;;;;;;;;;;;;;16.01;89.87;99653.66;2006771;80;20173;-72
2021/06/05 01:32:38;;;;;;;1.76;1.06;;;;;;;16.00;90.02;99649.31;2005725;78;22729;-73
2021/06/05 01:35:40;;;;;;;1.58;1.45;;;;;;;15.97;90.18;99651.97;2007291;80;20211;-73
2021/06/05 01:38:47;;;;;;;4.31;1.54;;;;;;;15.98;90.35;99645.88;2006292;80;20294;-72
2021/06/05 01:41:52;;;;;;;5.25;1.58;;;;;;;16.03;90.48;99648.38;2006911;80;20176;-72
2021/06/05 01:44:58;;;;;;;3.66;1.84;;;;;;;16.04;90.46;99642.25;2007100;80;20196;-72
2021/06/05 01:48:01;;;;;;;2.05;1.56;;;;;;;16.07;90.43;99641.31;2000645;80;30360;-72
2021/06/05 01:51:09;;;;;;;2.99;1.46;;;;;;;16.08;90.28;99637.78;2002107;81;20228;-72
2021/06/05 01:54:17;;;;;;;1.85;1.60;;;;;;;16.10;90.31;99634.25;2002584;81;20190;-72
2021/06/05 01:57:24;;;;;;;2.53;1.09;;;;;;;16.15;90.37;99634.13;2002131;81;20170;-72
2021/06/05 02:00:32;;;;;;;3.05;1.30;;;;;;;16.14;90.25;99632.41;2002094;78;21103;-73
2021/06/05 02:03:35;;;;;;;4.13;1.29;;;;;;;16.11;90.22;99630.72;2008695;80;20677;-72
2021/06/05 02:06:43;;;;;;;1.56;1.45;;;;;;;16.10;90.22;99626.38;2008866;80;20184;-72
2021/06/05 02:09:50;;;;;;;2.67;1.34;;;;;;;16.16;90.66;99628.88;2008421;80;20281;-72
2021/06/05 02:12:55;;;;;;;6.49;1.55;;;;;;;16.18;90.51;99632.31;2008601;80;20198;-72
2021/06/05 02:16:04;;;;;;;1.60;1.16;;;;;;;16.15;90.39;99636.75;2006356;78;20537;-72
2021/06/05 02:19:22;;;;;;;2.83;1.56;;;;;;;16.14;90.65;99633.25;2003228;81;20307;-72
2021/06/05 02:22:28;;;;;;;3.75;1.49;;;;;;;16.23;90.61;99637.44;2003634;81;20209;-72
2021/06/05 02:25:32;;;;;;;2.65;1.50;;;;;;;16.24;90.44;99642.66;2006817;80;20201;-75
2021/06/05 02:28:37;;;;;;;1.92;1.75;;;;;;;16.24;90.43;99644.41;2004017;81;20194;-72
2021/06/05 02:31:40;;;;;;;4.60;1.54;;;;;;;16.23;90.61;99647.94;2006111;78;21365;-72
2021/06/05 02:34:44;;;;;;;5.07;1.50;;;;;;;16.23;90.79;99640.94;2008902;80;20204;-72
2021/06/05 02:37:47;;;;;;;4.11;1.66;;;;;;;16.25;90.92;99639.13;2009087;80;21127;-72
2021/06/05 02:40:50;;;;;;;3.99;1.77;;;;;;;16.28;90.90;99636.44;2008618;80;20222;-72
2021/06/05 02:43:54;;;;;;;3.36;1.49;;;;;;;16.31;90.96;99630.25;2008772;80;20202;-73
2021/06/05 02:46:59;;;;;;;1.75;1.29;;;;;;;16.32;91.01;99638.06;2004749;78;20860;-72
2021/06/05 02:50:08;;;;;;;2.14;1.27;;;;;;;16.33;91.23;99629.31;2003327;81;20219;-72
2021/06/05 02:53:11;;;;;;;2.89;1.96;;;;;;;16.39;91.39;99640.56;2003848;81;20162;-72
2021/06/05 02:56:15;;;;;;;4.34;1.63;;;;;;;16.42;91.36;99637.88;2003869;81;20198;-73
2021/06/05 02:59:18;;;;;;;2.29;1.56;;;;;;;16.45;91.28;99641.28;2003954;81;20233;-72
2021/06/05 03:02:21;;;;;;;2.44;1.35;;;;;;;16.47;91.22;99633.38;2006264;78;20185;-72
2021/06/05 03:05:24;;;;;;;2.24;1.48;;;;;;;16.46;90.95;99647.38;2007850;80;20180;-72
2021/06/05 03:08:31;;;;;;;1.94;1.41;;;;;;;16.42;90.76;99643.13;2008116;80;20710;-72
2021/06/05 03:11:34;;;;;;;5.03;1.70;;;;;;;16.38;90.85;99642.34;2007386;80;20176;-72
2021/06/05 03:14:39;;;;;;;4.25;1.70;;;;;;;16.32;90.99;99640.69;2007094;80;20341;-72
2021/06/05 03:17:42;;;;;;;1.91;1.21;;;;;;;16.32;91.08;99638.06;2002439;78;22357;-73
2021/06/05 03:20:48;;;;;;;3.92;1.54;;;;;;;16.35;nan;99638.94;2002192;81;20210;-72
2021/06/05 03:23:50;;;;;;;2.86;1.34;;;;;;;16.40;90.98;99635.28;2006266;80;20759;-72
2021/06/05 03:26:56;;;;;;;8.65;1.92;;;;;;;16.48;90.96;99632.47;2001912;81;20213;-72
2021/06/05 03:29:58;;;;;;;3.86;1.52;;;;;;;16.54;90.81;99633.19;2002893;81;20254;-72
2021/06/05 03:33:01;;;;;;;3.59;1.60;;;;;;;16.55;90.79;99628.81;2001435;78;20366;-73
2021/06/05 03:36:06;;;;;;;3.34;1.38;;;;;;;16.54;90.77;99614.84;2002694;81;20267;-73
2021/06/05 03:39:09;;;;;;;1.71;1.33;;;;;;;16.53;90.70;99620.13;2002717;81;20884;-73
2021/06/05 03:42:12;;;;;;;3.30;1.30;;;;;;;16.53;90.85;99605.25;2001974;81;20174;-73
2021/06/05 03:45:15;;;;;;;4.63;1.48;;;;;;;16.55;90.91;99605.22;2002211;80;20251;-72
2021/06/05 03:48:19;;;;;;;1.66;1.24;;;;;;;16.53;90.95;99605.25;2007169;78;28804;-73
2021/06/05 03:51:22;;;;;;;2.17;1.50;;;;;;;16.55;90.87;99605.22;2007303;80;20266;-73
2021/06/05 03:54:25;;;;;;;1.60;1.50;;;;;;;16.52;90.89;99607.94;2007189;80;20506;-72
2021/06/05 03:57:27;;;;;;;1.66;1.55;;;;;;;16.52;91.25;99614.03;2007621;80;20217;-72
2021/06/05 04:00:36;;;;;;;2.96;1.40;;;;;;;16.53;91.19;99623.63;2005674;78;22210;-72
2021/06/05 04:03:39;;;;;;;4.20;1.51;;;;;;;16.53;91.18;99625.38;2001853;81;20267;-73
2021/06/05 04:06:42;;;;;;;2.05;1.56;;;;;;;16.54;91.24;99635.81;2001979;81;20832;-72
2021/06/05 04:09:45;;;;;;;4.64;1.55;;;;;;;16.56;91.37;99636.63;2002464;81;20190;-72
2021/06/05 04:12:49;;;;;;;2.03;1.60;;;;;;;16.59;91.40;99639.19;2002345;81;20202;-72
2021/06/05 04:15:52;;;;;;;3.05;1.70;;;;;;;16.64;91.28;99641.69;2001230;79;20455;-72
2021/06/05 04:18:55;;;;;;;5.78;1.81;;;;;;;16.69;91.11;99638.97;2002322;81;20580;-72
2021/06/05 04:21:58;;;;;;;1.65;1.55;;;;;;;16.71;90.93;99642.44;2002270;81;20225;-73
2021/06/05 04:25:01;;;;;;;1.69;1.54;;;;;;;16.73;90.84;99643.25;2002183;81;20247;-73
2021/06/05 04:28:07;;;;;;;2.50;1.70;;;;;;;16.74;90.99;99661.56;2001781;81;20178;-73
2021/06/05 04:31:10;;;;;;;7.60;2.65;;;;;;;16.72;91.05;99658.13;2002183;78;24667;-73
2021/06/05 04:34:13;;;;;;;5.80;1.99;;;;;;;16.68;91.23;99653.84;2001423;81;20247;-72
2021/06/05 04:37:16;;;;;;;2.30;1.55;;;;;;;16.67;91.37;99643.38;2002403;81;21107;-72
2021/06/05 04:40:20;;;;;;;8.99;1.92;;;;;;;16.73;91.48;99635.41;2001290;81;20262;-72
2021/06/05 04:43:23;;;;;;;5.86;1.98;;;;;;;16.78;91.48;99641.38;2001993;81;20166;-73
2021/06/05 04:46:26;;;;;;;4.15;2.20;;;;;;;16.80;91.48;99640.44;2003580;78;20348;-74
2021/06/05 04:49:29;;;;;;;2.60;2.10;;;;;;;16.85;91.37;99633.28;2006779;80;20302;-72
2021/06/05 04:52:32;;;;;;;4.24;2.15;;;;;;;16.86;91.20;99637.63;2006645;80;20292;-73
2021/06/05 04:55:35;;;;;;;3.42;1.96;;;;;;;16.87;90.92;99641.13;2007162;80;20574;-73
2021/06/05 04:58:38;;;;;;;6.40;1.83;;;;;;;16.84;90.70;99643.81;2006446;80;20242;-73
2021/06/05 05:01:41;;;;;;;3.92;2.29;;;;;;;16.83;90.89;99645.59;2003717;79;20312;-74
2021/06/05 05:04:43;;;;;;;3.00;2.45;;;;;;;16.83;91.18;99639.47;2001690;81;20198;-74
2021/06/05 05:07:48;;;;;;;3.53;2.29;;;;;;;16.83;91.35;99648.22;2001969;81;20651;-74
2021/06/05 05:10:52;;;;;;;9.02;2.63;;;;;;;16.84;91.53;99642.06;2001471;81;20597;-73
2021/06/05 05:13:55;;;;;;;4.61;2.26;;;;;;;16.85;91.82;99648.16;2002047;81;20199;-74
2021/06/05 05:16:58;;;;;;;2.58;2.13;;;;;;;16.85;91.71;99651.66;2004835;78;20751;-74
2021/06/05 05:20:04;;;;;;;4.14;2.79;;;;;;;16.85;91.65;99656.91;2007192;80;20173;-74
2021/06/05 05:23:09;;;;;;;4.94;2.71;;;;;;;16.85;91.68;99659.53;2006940;80;20172;-75
2021/06/05 05:26:12;;;;;;;5.11;2.79;;;;;;;16.86;91.72;99653.38;2006625;80;20181;-75
2021/06/05 05:29:15;;;;;;;2.56;2.36;;;;;;;16.89;91.98;99655.94;2007172;80;20199;-74
2021/06/05 05:32:18;;;;;;;4.32;2.58;;;;;;;16.95;92.40;99659.28;2003574;78;20185;-75
2021/06/05 05:35:21;;;;;;;3.01;2.46;;;;;;;16.99;92.61;99656.53;2001248;81;20170;-75
2021/06/05 05:38:24;;;;;;;3.22;2.84;;;;;;;17.01;92.53;99664.38;2001826;81;20346;-75
2021/06/05 05:41:26;;;;;;;7.43;3.46;;;;;;;17.02;92.30;99656.47;2002064;81;20225;-74
2021/06/05 05:44:30;;;;;;;4.55;4.06;;;;;;;17.04;92.17;99664.28;2001662;81;20254;-75
2021/06/05 05:47:33;;;;;;;11.01;3.75;;;;;;;17.03;92.18;99663.44;2005439;78;21218;-74
2021/06/05 05:50:37;;;;;;;3.47;3.16;;;;;;;17.06;92.18;99671.25;2006719;80;20173;-74
2021/06/05 05:53:41;;;;;;;5.00;3.34;;;;;;;17.11;92.23;99665.88;2007473;80;20201;-74
2021/06/05 05:56:44;;;;;;;3.99;3.45;;;;;;;17.15;92.32;99660.50;2006903;80;20205;-74
2021/06/05 05:59:46;;;;;;;4.25;3.51;;;;;;;17.25;92.45;99663.75;2006747;80;20187;-74
2021/06/05 06:02:49;;;;;;;4.55;3.71;;;;;;;17.35;92.33;99657.31;2000045;78;20791;-75
2021/06/05 06:05:52;;;;;;;4.44;4.07;;;;;;;17.48;92.10;99656.06;1997110;81;20205;-74
2021/06/05 06:08:55;;;;;;;9.41;4.43;;;;;;;17.59;91.92;99657.53;1997829;81;20304;-74
2021/06/05 06:11:58;;;;;;;4.97;4.47;;;;;;;17.68;91.62;99663.41;1998638;81;20603;-74
2021/06/05 06:15:01;;;;;;;5.85;4.55;;;;;;;17.77;91.58;99654.41;1999538;80;20214;-74
2021/06/05 06:18:04;;;;;;;6.34;5.43;;;;;;;17.84;91.45;99660.34;2001550;79;23595;-74
2021/06/05 06:21:10;;;;;;;6.75;5.16;;;;;;;17.90;90.93;99665.41;2004633;80;20192;-75
2021/06/05 06:24:13;;;;;;;5.74;5.20;;;;;;;18.01;90.73;99668.59;2005296;80;20963;-75
2021/06/05 06:27:16;;;;;;;5.45;5.01;;;;;;;18.07;90.39;99671.03;2005756;80;21063;-74
2021/06/05 06:30:25;;;;;;;6.74;5.49;;;;;;;18.11;90.12;99665.63;2004048;80;22610;-75
2021/06/05 06:33:28;;;;;;;5.38;4.79;;;;;;;18.11;89.80;99673.50;2008192;80;20617;-81
2021/06/05 06:36:31;;;;;;;6.10;5.10;;;;;;;18.15;89.85;99668.19;2015348;80;20205;-84
2021/06/05 06:39:35;;;;;;;5.82;5.32;;;;;;;18.25;89.87;99674.84;2016427;80;20195;-83
2021/06/05 06:42:38;;;;;;;5.65;4.56;;;;;;;18.31;88.80;99679.91;2016185;80;20197;-83
2021/06/05 06:45:40;;;;;;;7.55;4.94;;;;;;;18.38;88.49;99676.19;2017083;78;21359;-84
2021/06/05 06:48:44;;;;;;;4.57;4.01;;;;;;;18.44;88.46;99678.63;2015132;81;20194;-84
2021/06/05 06:51:47;;;;;;;4.66;4.21;;;;;;;18.45;87.21;99675.06;2008867;81;20173;-80
2021/06/05 06:54:53;;;;;;;5.59;4.35;;;;;;;18.46;86.67;99683.81;2010279;81;20204;-81
2021/06/05 06:57:58;;;;;;;5.79;4.19;;;;;;;18.45;86.99;99685.59;2008978;81;20223;-83
2021/06/05 07:01:02;;;;;;;4.46;4.14;;;;;;;18.39;86.71;99691.91;2007902;81;20197;-79
2021/06/05 07:04:06;;;;;;;4.94;4.44;;;;;;;18.35;86.66;99687.69;2009467;81;20907;-83
2021/06/05 07:07:08;;;;;;;6.70;4.21;;;;;;;18.32;87.27;99694.81;2008796;81;20174;-84
2021/06/05 07:10:14;;;;;;;8.05;4.70;;;;;;;18.30;87.31;99688.69;2011569;81;20203;-83
2021/06/05 07:13:17;;;;;;;4.74;4.18;;;;;;;18.32;87.91;99695.66;2011159;81;20229;-81
2021/06/05 07:16:20;;;;;;;5.10;4.54;;;;;;;18.33;87.52;99696.53;2010892;78;21754;-82
2021/06/05 07:19:22;;;;;;;4.81;4.40;;;;;;;18.37;87.49;99699.00;2017433;80;20200;-83
2021/06/05 07:22:25;;;;;;;5.05;4.61;;;;;;;18.41;87.09;99697.13;2012991;80;20207;-82
2021/06/05 07:25:28;;;;;;;4.85;4.47;;;;;;;18.45;87.05;99701.38;2014585;80;20177;-83
2021/06/05 07:28:47;;;;;;;6.25;4.93;;;;;;;18.50;87.18;99709.16;2014390;80;20193;-81
2021/06/05 07:31:51;;;;;;;;;;;;;;;18.51;87.36;99705.59;2011177;78;20498;-81
2021/06/05 07:34:54;;;;;;;6.39;4.45;;;;;;;18.47;87.49;99706.59;2008042;81;20161;-81
2021/06/05 07:37:57;;;;;;;5.20;4.79;;;;;;;18.47;87.50;99709.22;2007506;81;20195;-82
2021/06/05 07:40:59;;;;;;;5.30;4.59;;;;;;;18.49;87.32;99702.13;2011103;80;20210;-82
2021/06/05 07:44:04;;;;;;;6.34;4.24;;;;;;;18.55;87.16;99701.97;2009422;81;20177;-82
2021/06/05 07:47:07;;;;;;;5.13;4.46;;;;;;;18.68;87.29;99701.56;2007958;78;25557;-82
2021/06/05 07:50:12;;;;;;;4.94;4.46;;;;;;;18.82;86.93;99706.34;2011050;81;20181;-82
2021/06/05 07:53:15;;;;;;;5.16;4.13;;;;;;;18.91;85.74;99710.47;2011450;81;20178;-81
2021/06/05 07:56:18;;;;;;;4.65;4.18;;;;;;;18.94;85.61;99712.97;2007414;81;20170;-77
2021/06/05 07:59:24;;;;;;;4.66;4.26;;;;;;;18.98;85.73;99712.81;2007676;81;20193;-82
2021/06/05 08:02:27;;;;;;;4.69;4.34;;;;;;;18.92;84.48;99712.19;2007574;79;26773;-80
2021/06/05 08:05:30;;;;;;;6.13;4.03;;;;;;;18.80;83.41;99708.16;2010589;81;20612;-79
2021/06/05 08:08:33;;;;;;;4.60;4.21;;;;;;;18.73;83.41;99713.69;2005901;81;20358;-80
2021/06/05 08:11:36;;;;;;;5.01;3.79;;;;;;;18.66;83.90;99710.38;2007148;81;20203;-82
2021/06/05 08:14:39;;;;;;;4.09;3.72;;;;;;;18.63;84.29;99713.97;2009059;81;20253;-82
2021/06/05 08:17:42;;;;;;;3.92;3.59;;;;;;;18.62;84.65;99717.47;2008442;79;26338;-82
2021/06/05 08:20:55;;;;;;;4.24;3.84;;;;;;;18.66;85.10;99713.00;2008927;81;20251;-82
2021/06/05 08:23:58;;;;;;;4.72;4.40;;;;;;;18.75;85.58;99714.50;2010745;81;20205;-80
2021/06/05 08:27:01;;;;;;;4.56;4.16;;;;;;;18.79;85.84;99708.22;2007588;80;20251;-81
2021/06/05 08:30:09;;;;;;;4.60;4.20;;;;;;;18.81;85.36;99719.53;2001828;81;20177;-81
2021/06/05 08:33:13;;;;;;;4.59;4.29;;;;;;;18.80;85.18;99715.19;2005070;81;20178;-80
2021/06/05 08:36:20;;;;;;;4.90;3.47;;;;;;;18.83;85.59;99712.47;2004230;81;21035;-80
2021/06/05 08:39:23;;;;;;;4.35;3.95;;;;;;;18.81;85.12;99716.91;2004520;81;20225;-81
2021/06/05 08:42:35;;;;;;;5.28;4.06;;;;;;;18.80;84.79;99718.69;2003830;81;20186;-80
2021/06/05 08:45:39;;;;;;;6.21;5.63;;;;;;;18.78;84.75;99714.38;2002071;79;21845;-79
2021/06/05 08:48:42;;;;;;;5.97;5.50;;;;;;;18.83;84.63;99712.47;2006443;80;20192;-79
2021/06/05 08:58:37;;;;;;;5.81;5.26;;;;;;;19.19;84.71;99710.38;2013808;70;20307;-79
2021/06/05 09:01:44;;;;;;;5.68;5.10;;;;;;;19.45;83.88;99712.09;2000488;78;20181;-79
2021/06/05 09:04:47;;;;;;;5.91;5.44;;;;;;;19.65;82.92;99712.28;2000164;81;20295;-80
2021/06/05 09:07:49;;;;;;;5.72;5.32;;;;;;;19.80;82.54;99711.72;1999530;81;20218;-79
2021/06/05 09:10:54;;;;;;;6.49;5.99;;;;;;;19.87;80.93;99712.34;1997868;81;20206;-79
2021/06/05 09:13:57;;;;;;;6.63;5.53;;;;;;;19.94;79.99;99710.34;1998947;81;20213;-79
2021/06/05 09:17:11;;;;;;;6.64;6.06;;;;;;;20.04;79.72;99714.34;1995603;81;23312;-79
2021/06/05 09:20:27;;;;;;;7.78;5.80;;;;;;;20.09;78.68;99715.88;1996823;81;20175;-80
2021/06/05 09:23:31;;;;;;;8.19;5.86;;;;;;;20.14;78.58;99713.97;1991867;81;20311;-79
2021/06/05 09:26:34;;;;;;;5.76;5.36;;;;;;;20.18;78.57;99712.91;1994163;81;20205;-79
2021/06/05 09:29:58;;;;;;;6.64;5.95;;;;;;;20.19;77.33;99709.34;1994205;81;20214;-79
2021/06/05 09:33:05;;;;;;;5.93;5.32;;;;;;;20.30;76.96;99716.00;1993226;81;20237;-79
2021/06/05 09:36:18;;;;;;;6.10;5.66;;;;;;;20.38;77.08;99719.19;1993048;81;20204;-79
2021/06/05 09:39:43;;;;;;;5.31;4.90;;;;;;;20.48;77.33;99710.03;1994570;81;20222;-80
2021/06/05 09:42:56;;;;;;;6.19;5.61;;;;;;;20.64;77.50;99721.66;1996429;81;20665;-80
2021/06/05 09:46:07;;;;;;;7.57;6.53;;;;;;;20.72;76.92;99710.81;1997280;78;23007;-79
2021/06/05 09:49:10;;;;;;;7.29;6.69;;;;;;;20.90;76.49;99712.72;1998948;81;20873;-79
2021/06/05 09:52:24;;;;;;;7.72;7.03;;;;;;;21.12;75.49;99707.38;1998439;81;20224;-79
2021/06/05 09:55:33;;;;;;;7.91;7.21;;;;;;;21.28;74.29;99713.75;1999524;81;20198;-80
2021/06/05 09:58:40;;;;;;;6.72;6.07;;;;;;;21.33;73.34;99716.19;2001645;81;20249;-79
2021/06/05 10:01:56;;;;;;;7.88;6.63;;;;;;;21.29;72.91;99715.47;1999816;79;22427;-79
2021/06/05 10:05:05;;;;;;;6.03;5.51;;;;;;;21.27;73.66;99712.03;2001135;81;20251;-80
2021/06/05 10:08:26;;;;;;;;;;;;;;;21.26;74.65;99715.59;2000071;81;20214;-79
2021/06/05 10:11:37;;;;;;;5.74;5.26;;;;;;;21.18;74.69;99712.38;1998880;81;20121;-80
2021/06/05 10:15:01;;;;;;;6.51;5.90;;;;;;;21.14;75.46;99713.44;2000550;81;20388;-80
2021/06/05 10:18:12;;;;;;;7.70;6.81;;;;;;;21.18;75.50;99711.53;1996106;78;22329;-79
2021/06/05 10:21:23;;;;;;;8.29;7.28;;;;;;;21.04;72.82;99718.28;1996344;81;20236;-80
2021/06/05 10:24:50;;;;;;;9.89;7.10;;;;;;;20.95;73.99;99721.28;1998544;81;20175;-80
2021/06/05 10:27:53;;;;;;;10.65;7.68;;;;;;;20.88;75.19;99718.97;1999400;81;20220;-80
2021/06/05 10:31:03;;;;;;;8.14;7.44;;;;;;;20.78;73.61;99716.69;1992691;81;24737;-76
2021/06/05 10:34:30;;;;;;;8.39;7.59;;;;;;;20.77;73.47;99722.91;1996629;81;20299;-77
2021/06/05 10:37:37;;;;;;;10.07;9.07;;;;;;;20.88;75.34;99714.56;1996447;81;20200;-77
2021/06/05 10:40:39;;;;;;;13.48;12.07;;;;;;;20.91;75.33;99717.06;1995504;81;20159;-77
2021/06/05 10:43:43;;;;;;;14.73;13.32;;;;;;;21.03;75.76;99708.63;1996713;81;20256;-77
2021/06/05 10:47:00;;;;;;;13.84;12.45;;;;;;;21.10;73.57;99707.44;1992494;81;21544;-77
2021/06/05 10:50:09;;;;;;;13.63;12.32;;;;;;;21.29;73.52;99706.69;1991194;81;20187;-77
2021/06/05 10:53:30;;;;;;;13.32;12.02;;;;;;;21.42;73.43;99714.03;1992285;81;20195;-77
2021/06/05 10:56:54;;;;;;;13.80;12.51;;;;;;;21.52;73.87;99721.53;1991555;81;20285;-77
2021/06/05 11:00:01;;;;;;;12.61;11.41;;;;;;;21.47;73.95;99721.75;1991840;81;20200;-76
2021/06/05 11:03:05;;;;;;;14.54;10.90;;;;;;;21.47;73.23;99719.09;1991005;79;21725;-76
2021/06/05 11:06:12;;;;;;;12.04;10.94;;;;;;;21.54;74.20;99722.31;1991010;81;20225;-76
2021/06/05 11:09:24;;;;;;;13.24;11.21;;;;;;;21.62;73.38;99722.84;1991612;81;20776;-76
2021/06/05 11:12:26;;;;;;;;;;;;;;;21.71;72.70;99717.16;1991200;81;20267;-76
2021/06/05 11:15:51;;;;;;;10.07;9.11;;;;;;;21.81;72.37;99709.69;1989867;78;21735;-75
2021/06/05 11:18:53;;;;;;;10.76;8.89;;;;;;;21.87;71.97;99710.25;1990853;81;20199;-76
2021/06/05 11:22:06;;;;;;;10.70;8.39;;;;;;;21.94;72.04;99703.78;1991641;81;20577;-76
2021/06/05 11:25:08;;;;;;;7.60;6.97;;;;;;;22.00;72.55;99703.47;1990852;81;20217;-77
2021/06/05 11:28:31;;;;;;;9.35;8.50;;;;;;;21.98;71.09;99701.84;1991561;81;20268;-76
2021/06/05 11:31:56;;;;;;;8.90;7.41;;;;;;;21.88;71.33;99711.09;1990883;79;20260;-76
2021/06/05 11:35:03;;;;;;;7.74;7.05;;;;;;;21.69;71.52;99705.78;1996706;81;20174;-77
2021/06/05 11:38:31;;;;;;;6.91;6.29;;;;;;;21.56;72.35;99710.78;1996582;81;20263;-77
2021/06/05 11:41:43;;;;;;;7.34;6.68;;;;;;;21.41;72.58;99706.16;1994898;81;20204;-77
2021/06/05 11:44:46;;;;;;;7.90;6.68;;;;;;;21.35;72.94;99712.56;1997110;81;20182;-78
2021/06/05 11:47:49;;;;;;;6.20;5.72;;;;;;;21.32;73.96;99707.41;1992344;79;20797;-78
2021/06/05 11:51:20;;;;;;;4.88;4.25;;;;;;;21.40;73.76;99712.38;1992336;81;20388;-78
2021/06/05 11:54:23;;;;;;;5.35;4.09;;;;;;;21.44;73.10;99710.47;1992066;81;20980;-78
2021/06/05 11:57:32;;;;;;;4.30;3.08;;;;;;;21.45;73.44;99710.38;1992332;81;20179;-78
2021/06/05 12:00:39;;;;;;;;;;;;;;;21.60;72.44;99715.00;1992010;78;20976;-77
2021/06/05 12:03:44;;;;;;;3.38;2.10;;;;;;;21.66;70.43;99713.84;1997406;81;20131;-78
2021/06/05 12:06:49;;;;;;;2.54;1.63;;;;;;;21.72;69.91;99713.56;1998587;81;20174;-77
2021/06/05 12:09:56;;;;;;;2.10;1.81;;;;;;;21.71;69.22;99717.16;1997895;81;20170;-77
2021/06/05 12:13:00;;;;;;;1.89;1.63;;;;;;;21.61;69.57;99716.72;1998410;81;20182;-79
2021/06/05 12:16:05;;;;;;;3.14;1.69;;;;;;;21.34;70.67;99715.25;1996797;78;20895;-79
2021/06/05 12:19:08;;;;;;;3.08;2.89;;;;;;;21.10;70.97;99722.44;1998341;81;20171;-77
2021/06/05 12:22:18;;;;;;;2.58;2.39;;;;;;;20.89;71.58;99718.06;1994088;81;20896;-78
2021/06/05 12:26:01;;;;;;;2.84;2.60;;;;;;;20.62;72.28;99725.28;1993310;81;20171;-77
2021/06/05 12:29:14;;;;;;;2.70;2.50;;;;;;;20.19;73.32;99722.53;1987238;81;20528;-78
2021/06/05 12:32:23;;;;;;;3.54;2.66;;;;;;;19.96;74.07;99721.69;1995770;79;22225;-77
2021/06/05 12:35:36;;;;;;;2.99;2.79;;;;;;;19.77;75.43;99719.75;1997723;81;20203;-78
2021/06/05 12:38:41;;;;;;;3.65;2.79;;;;;;;19.61;75.74;99710.69;1998539;81;20167;-77
2021/06/05 12:41:46;;;;;;;3.06;2.63;;;;;;;19.51;76.33;99719.78;1995429;81;21161;-77
2021/06/05 12:44:51;;;;;;;4.64;3.46;;;;;;;19.44;77.01;99727.06;1996647;81;20238;-76
2021/06/05 12:47:58;;;;;;;3.72;2.96;;;;;;;19.36;76.86;99721.16;1990934;79;23179;-76
2021/06/05 12:51:05;;;;;;;5.30;3.49;;;;;;;19.21;77.03;99722.59;1990261;81;20203;-76
2021/06/05 12:54:11;;;;;;;2.28;2.08;;;;;;;19.21;77.94;99722.59;1990013;81;20191;-76
2021/06/05 12:57:37;;;;;;;2.11;1.91;;;;;;;19.20;78.22;99725.25;1990397;81;20195;-76
2021/06/05 13:00:46;;;;;;;3.65;1.69;;;;;;;19.31;78.59;99723.97;1990334;78;26067;-76
2021/06/05 13:03:49;;;;;;;2.74;1.42;;;;;;;19.47;78.17;99736.63;1995855;81;20833;-76
2021/06/05 13:06:57;;;;;;;1.15;0.99;;;;;;;19.49;77.30;99735.63;1995855;81;20243;-76
2021/06/05 13:10:25;;;;;;;1.11;1.02;;;;;;;19.56;76.09;99734.53;1995618;81;20204;-76
2021/06/05 13:13:31;;;;;;;1.87;1.09;;;;;;;19.66;75.87;99735.06;1996332;81;20179;-76
2021/06/05 13:16:34;;;;;;;2.03;0.90;;;;;;;19.73;74.77;99738.34;1995530;78;20214;-76
2021/06/05 13:19:38;;;;;;;0.90;0.90;;;;;;;19.78;74.56;99739.06;1996437;81;20178;-76
2021/06/05 13:22:40;;;;;;;1.60;0.80;;;;;;;19.79;74.30;99743.41;1996637;81;20220;-76
2021/06/05 13:25:43;;;;;;;4.61;0.80;;;;;;;19.86;73.82;99729.94;1998787;81;20178;-80
2021/06/05 13:28:46;;;;;;;1.83;0.71;;;;;;;19.94;73.82;99737.56;1999665;81;20980;-80
2021/06/05 13:31:53;;;;;;;1.23;0.70;;;;;;;20.00;73.63;99736.47;1993987;79;20611;-75
2021/06/05 13:34:55;;;;;;;1.00;0.81;;;;;;;20.02;73.54;99738.13;1994630;81;20183;-79
2021/06/05 13:38:14;;;;;;;2.16;1.10;;;;;;;20.05;72.82;99732.75;1992516;81;20238;-78
2021/06/05 13:41:16;;;;;;;1.54;0.88;;;;;;;20.04;72.38;99730.16;1992852;81;20163;-79
2021/06/05 13:44:19;;;;;;;1.96;1.10;;;;;;;20.03;71.85;99733.72;1993346;81;20210;-79
2021/06/05 13:47:22;;;;;;;7.74;1.56;;;;;;;19.95;71.90;99728.75;1997904;78;22126;-79
2021/06/05 13:50:28;;;;;;;2.25;1.70;;;;;;;19.96;72.41;99732.25;1999183;81;20206;-79
2021/06/05 13:53:34;;;;;;;4.35;2.25;;;;;;;20.02;72.85;99738.13;1998900;81;20252;-79
2021/06/05 13:56:37;;;;;;;2.83;2.63;;;;;;;20.01;72.67;99732.94;1999289;80;20179;-80
2021/06/05 13:59:40;;;;;;;4.22;3.47;;;;;;;19.98;72.68;99739.19;1998876;81;20190;-79
2021/06/05 14:02:43;;;;;;;3.60;3.04;;;;;;;20.01;72.56;99740.84;1998889;79;20881;-79
2021/06/05 14:05:46;;;;;;;4.16;3.47;;;;;;;20.07;73.12;99746.72;1999273;81;20321;-79
2021/06/05 14:08:49;;;;;;;5.90;3.35;;;;;;;20.14;72.59;99752.66;1997185;81;20166;-79
2021/06/05 14:11:52;;;;;;;3.89;3.00;;;;;;;19.97;72.41;99749.78;1997966;81;20188;-79
2021/06/05 14:14:56;;;;;;;5.29;4.07;;;;;;;19.96;73.40;99748.06;2000725;81;20186;-79
2021/06/05 14:18:00;;;;;;;5.85;3.97;;;;;;;19.94;73.37;99749.91;1999469;78;42310;-80
2021/06/05 14:21:04;;;;;;;4.97;4.51;;;;;;;19.93;73.46;99756.94;2000359;81;20218;-79
2021/06/05 14:24:07;;;;;;;5.68;5.15;;;;;;;19.97;73.73;99747.16;1997979;81;20884;-79
2021/06/05 14:27:13;;;;;;;5.99;5.18;;;;;;;19.94;72.88;99756.03;1997484;81;20182;-78
2021/06/05 14:30:21;;;;;;;5.69;5.14;;;;;;;19.91;73.71;99742.94;1997583;81;20611;-78
2021/06/05 14:33:26;;;;;;;8.32;5.20;;;;;;;19.85;74.44;99751.94;1998996;81;20230;-78
2021/06/05 14:36:29;;;;;;;5.95;5.40;;;;;;;19.83;73.62;99750.28;1999525;81;20178;-79
2021/06/05 14:39:31;;;;;;;5.75;4.99;;;;;;;19.70;73.90;99755.13;1998986;81;20228;-79
2021/06/05 14:42:36;;;;;;;7.79;5.05;;;;;;;19.68;74.35;99756.09;1998369;81;20762;-78
2021/06/05 14:45:45;;;;;;;8.21;5.43;;;;;;;19.61;74.28;99750.19;1997138;79;20600;-79